createdAt,value
2023-05-03T00:00:07.989Z,6.00
2023-05-03T00:02:53.973Z,5.98
2023-05-03T00:05:39.349Z,5.97
2023-05-03T00:08:24.167Z,5.91
2023-05-03T00:11:09.685Z,5.85
2023-05-03T00:13:54.460Z,5.92
2023-05-03T00:16:39.666Z,5.91
2023-05-03T00:19:31.765Z,5.93
2023-05-03T00:22:16.808Z,5.88
2023-05-03T00:25:02.448Z,5.86
2023-05-03T00:27:47.373Z,5.86
2023-05-03T00:30:32.496Z,5.79
2023-05-03T00:33:17.273Z,5.78
2023-05-03T00:36:13.284Z,5.80
2023-05-03T00:38:58.401Z,5.69
2023-05-03T00:41:43.326Z,5.65
2023-05-03T00:44:28.391Z,5.67
2023-05-03T00:47:13.548Z,5.67
2023-05-03T00:50:00.212Z,5.76
2023-05-03T00:52:45.427Z,5.81
2023-05-03T00:55:33.950Z,5.75
2023-05-03T00:58:19.570Z,5.73
2023-05-03T01:01:04.783Z,5.63
2023-05-03T01:03:50.593Z,5.51
2023-05-03T01:06:38.861Z,5.36
2023-05-03T01:09:41.776Z,5.38
2023-05-03T01:12:34.345Z,5.34
2023-05-03T01:15:57.065Z,5.35
2023-05-03T01:18:46.562Z,5.33
2023-05-03T01:21:33.964Z,5.28
2023-05-03T01:24:23.805Z,5.14
2023-05-03T01:27:09.396Z,5.19
2023-05-03T01:29:54.364Z,5.15
2023-05-03T01:33:03.689Z,5.18
2023-05-03T01:36:00.008Z,5.04
2023-05-03T01:38:45.284Z,5.02
2023-05-03T01:41:31.514Z,4.91
2023-05-03T01:44:17.573Z,4.88
2023-05-03T01:47:02.477Z,4.89
2023-05-03T01:49:47.148Z,5.07
2023-05-03T01:52:32.348Z,4.86
2023-05-03T01:55:17.369Z,4.91
2023-05-03T01:58:02.331Z,4.86
2023-05-03T02:00:47.964Z,4.75
2023-05-03T02:03:32.961Z,4.68
2023-05-03T02:06:18.188Z,4.70
2023-05-03T02:09:03.337Z,4.70
2023-05-03T02:11:48.260Z,4.60
2023-05-03T02:14:33.314Z,4.57
2023-05-03T02:17:18.853Z,4.56
2023-05-03T02:20:10.922Z,4.57
2023-05-03T02:22:55.967Z,4.57
2023-05-03T02:25:41.312Z,4.56
2023-05-03T02:28:26.380Z,4.52
2023-05-03T02:31:13.324Z,4.50
2023-05-03T02:33:58.745Z,4.65
2023-05-03T02:36:43.641Z,4.58
2023-05-03T02:39:29.119Z,4.55
2023-05-03T02:42:13.932Z,4.49
2023-05-03T02:44:58.763Z,4.57
2023-05-03T02:47:44.225Z,4.56
2023-05-03T02:50:29.079Z,4.54
2023-05-03T02:53:13.934Z,4.48
2023-05-03T02:55:58.849Z,4.34
2023-05-03T02:58:44.065Z,4.34
2023-05-03T03:01:29.752Z,4.31
2023-05-03T03:04:15.698Z,4.30
2023-05-03T03:07:00.846Z,4.33
2023-05-03T03:09:45.966Z,4.32
2023-05-03T03:12:30.825Z,4.40
2023-05-03T03:15:15.760Z,4.40
2023-05-03T03:18:00.940Z,4.31
2023-05-03T03:20:45.845Z,4.30
2023-05-03T03:23:30.678Z,4.19
2023-05-03T03:26:15.779Z,3.99
2023-05-03T03:29:01.045Z,3.99
2023-05-03T03:31:46.427Z,3.99
2023-05-03T03:34:32.171Z,3.97
2023-05-03T03:37:17.382Z,4.04
2023-05-03T03:40:02.622Z,3.95
2023-05-03T03:42:47.656Z,3.95
2023-05-03T03:45:32.489Z,3.80
2023-05-03T03:48:17.746Z,3.80
2023-05-03T03:51:02.998Z,3.77
2023-05-03T03:53:47.953Z,3.72
2023-05-03T03:56:33.092Z,3.71
2023-05-03T03:59:18.252Z,3.61
2023-05-03T04:02:03.180Z,3.64
2023-05-03T04:04:47.973Z,3.60
2023-05-03T04:07:33.053Z,3.59
2023-05-03T04:10:17.815Z,3.64
2023-05-03T04:13:03.110Z,3.70
2023-05-03T04:15:48.169Z,3.70
2023-05-03T04:18:33.286Z,3.68
2023-05-03T04:21:19.770Z,3.69
2023-05-03T04:24:07.136Z,3.68
2023-05-03T04:26:52.275Z,3.65
2023-05-03T04:29:38.412Z,3.64
2023-05-03T04:32:23.575Z,3.82
2023-05-03T04:35:10.459Z,3.82
2023-05-03T04:37:55.592Z,3.85
2023-05-03T04:40:41.167Z,3.87
2023-05-03T04:43:26.201Z,3.90
2023-05-03T04:46:11.168Z,3.99
2023-05-03T04:48:56.364Z,4.08
2023-05-03T04:51:41.270Z,4.19
2023-05-03T04:54:26.388Z,4.21
2023-05-03T04:57:11.549Z,4.32
2023-05-03T04:59:56.345Z,4.48
2023-05-03T05:02:41.181Z,4.47
2023-05-03T05:05:26.227Z,4.60
2023-05-03T05:08:11.195Z,4.56
2023-05-03T05:10:56.298Z,4.56
2023-05-03T05:13:41.608Z,4.67
2023-05-03T05:16:26.691Z,4.70
2023-05-03T05:19:12.705Z,4.81
2023-05-03T05:21:57.873Z,4.88
2023-05-03T05:24:42.655Z,4.97
2023-05-03T05:27:27.937Z,4.97
2023-05-03T05:30:13.796Z,5.12
2023-05-03T05:32:58.553Z,5.17
2023-05-03T05:35:45.670Z,5.19
2023-05-03T05:38:30.927Z,5.34
2023-05-03T05:41:15.821Z,5.43
2023-05-03T05:44:00.941Z,5.43
2023-05-03T05:46:46.554Z,5.56
2023-05-03T05:49:31.589Z,5.69
2023-05-03T05:52:16.469Z,5.72
2023-05-03T05:55:01.400Z,5.88
2023-05-03T05:57:46.872Z,5.94
2023-05-03T06:00:32.268Z,6.02
2023-05-03T06:03:17.275Z,6.13
2023-05-03T06:06:02.079Z,6.14
2023-05-03T06:08:49.733Z,6.12
2023-05-03T06:11:35.537Z,6.18
2023-05-03T06:14:20.602Z,6.28
2023-05-03T06:17:05.560Z,6.43
2023-05-03T06:19:50.936Z,6.50
2023-05-03T06:22:36.048Z,6.51
2023-05-03T06:25:21.224Z,6.58
2023-05-03T06:28:06.374Z,6.68
2023-05-03T06:30:51.836Z,6.69
2023-05-03T06:33:36.817Z,6.88
2023-05-03T06:36:22.038Z,6.85
2023-05-03T06:39:09.337Z,6.91
2023-05-03T06:41:54.633Z,6.98
2023-05-03T06:44:39.723Z,6.96
2023-05-03T06:47:24.852Z,7.09
2023-05-03T06:50:10.557Z,7.15
2023-05-03T06:52:55.510Z,7.25
2023-05-03T06:55:43.579Z,7.53
2023-05-03T06:58:28.987Z,7.73
2023-05-03T07:01:14.049Z,7.79
2023-05-03T07:03:59.186Z,7.86
2023-05-03T07:06:55.920Z,7.94
2023-05-03T07:09:43.624Z,7.83
2023-05-03T07:12:28.860Z,8.09
2023-05-03T07:15:14.804Z,8.26
2023-05-03T07:17:59.728Z,8.13
2023-05-03T07:20:44.908Z,8.44
2023-05-03T07:23:30.169Z,8.58
2023-05-03T07:26:14.981Z,8.66
2023-05-03T07:29:00.530Z,8.71
2023-05-03T07:31:45.606Z,8.87
2023-05-03T07:34:30.499Z,8.79
2023-05-03T07:37:15.464Z,8.91
2023-05-03T07:40:00.509Z,8.84
2023-05-03T07:42:46.358Z,8.81
2023-05-03T07:45:31.506Z,8.98
2023-05-03T07:48:16.574Z,9.33
2023-05-03T07:51:04.456Z,9.32
2023-05-03T07:53:49.517Z,10.39
2023-05-03T07:56:34.688Z,13.72
2023-05-03T07:59:19.412Z,14.20
2023-05-03T08:02:04.795Z,15.22
2023-05-03T08:04:50.224Z,14.78
2023-05-03T08:07:35.469Z,15.90
2023-05-03T08:10:21.213Z,13.98
2023-05-03T08:13:06.318Z,16.67
2023-05-03T08:15:51.951Z,18.11
2023-05-03T08:18:36.609Z,15.53
2023-05-03T08:21:24.531Z,15.07
2023-05-03T08:24:10.207Z,14.34
2023-05-03T08:26:55.262Z,16.14
2023-05-03T08:29:40.322Z,15.74
2023-05-03T08:32:25.948Z,15.62
2023-05-03T08:35:10.863Z,16.33
2023-05-03T08:37:55.955Z,17.01
2023-05-03T08:40:41.553Z,14.16
2023-05-03T08:43:28.564Z,16.82
2023-05-03T08:46:15.646Z,19.44
2023-05-03T08:49:01.307Z,14.64
2023-05-03T08:51:49.717Z,14.60
2023-05-03T08:54:34.616Z,18.48
2023-05-03T08:57:23.559Z,16.65
2023-05-03T09:00:10.814Z,14.85
2023-05-03T09:02:56.343Z,14.70
2023-05-03T09:05:43.996Z,17.71
2023-05-03T09:08:30.474Z,16.96
2023-05-03T09:11:23.799Z,15.26
2023-05-03T09:14:10.278Z,18.20
2023-05-03T09:16:55.429Z,15.27
2023-05-03T09:19:54.210Z,17.28
2023-05-03T09:22:51.714Z,16.36
2023-05-03T09:25:47.843Z,17.48
2023-05-03T09:28:40.959Z,17.16
2023-05-03T09:31:26.103Z,18.57
2023-05-03T09:34:23.261Z,18.60
2023-05-03T09:37:08.567Z,16.65
2023-05-03T09:40:05.762Z,18.61
2023-05-03T09:43:08.524Z,19.32
2023-05-03T09:46:09.070Z,19.99
2023-05-03T09:48:56.740Z,19.71
2023-05-03T09:51:42.071Z,18.53
2023-05-03T09:54:27.114Z,20.30
2023-05-03T09:57:14.596Z,19.52
2023-05-03T09:59:59.721Z,18.31
2023-05-03T10:02:45.496Z,19.14
2023-05-03T10:05:33.248Z,18.13
2023-05-03T10:08:38.243Z,16.02
2023-05-03T10:11:26.690Z,19.17
2023-05-03T10:14:12.154Z,22.31
2023-05-03T10:17:01.253Z,19.22
2023-05-03T10:19:51.967Z,20.52
2023-05-03T10:23:05.291Z,17.71
2023-05-03T10:26:05.353Z,17.44
2023-05-03T10:28:50.244Z,17.34
2023-05-03T10:31:48.539Z,19.48
2023-05-03T10:34:35.226Z,20.47
2023-05-03T10:37:26.768Z,18.50
2023-05-03T10:40:14.086Z,17.18
2023-05-03T10:43:00.599Z,17.78
2023-05-03T10:45:47.834Z,20.22
2023-05-03T10:48:35.377Z,18.80
2023-05-03T10:51:30.527Z,19.19
2023-05-03T10:54:17.100Z,19.06
2023-05-03T10:57:03.076Z,16.38
2023-05-03T10:59:49.994Z,18.60
2023-05-03T11:02:39.701Z,17.16
2023-05-03T11:05:28.391Z,19.68
2023-05-03T11:08:17.508Z,17.03
2023-05-03T11:11:05.307Z,19.41
2023-05-03T11:13:51.477Z,20.27
2023-05-03T11:16:36.939Z,21.12
2023-05-03T11:19:22.762Z,18.96
2023-05-03T11:22:08.340Z,17.42
2023-05-03T11:24:53.502Z,19.11
2023-05-03T11:27:41.519Z,16.58
2023-05-03T11:30:27.648Z,17.54
2023-05-03T11:33:13.186Z,16.94
2023-05-03T11:35:57.973Z,18.56
2023-05-03T11:38:42.911Z,18.48
2023-05-03T11:41:27.598Z,16.56
2023-05-03T11:44:17.724Z,16.98
2023-05-03T11:47:03.807Z,17.31
2023-05-03T11:49:56.286Z,17.70
2023-05-03T11:52:41.925Z,17.50
2023-05-03T11:55:26.874Z,18.09
2023-05-03T11:58:16.315Z,17.88
2023-05-03T12:01:01.854Z,15.95
2023-05-03T12:03:49.267Z,16.24
2023-05-03T12:06:35.963Z,15.50
2023-05-03T12:09:27.310Z,15.66
2023-05-03T12:12:20.760Z,16.12
2023-05-03T12:15:13.209Z,15.23
2023-05-03T12:18:05.374Z,15.34
2023-05-03T12:21:30.115Z,15.50
2023-05-03T12:24:05.246Z,16.11
2023-05-03T12:26:52.666Z,16.84
2023-05-03T12:29:38.069Z,17.10
2023-05-03T12:32:23.396Z,16.84
2023-05-03T12:35:14.192Z,16.92
2023-05-03T12:38:02.504Z,17.18
2023-05-03T12:40:48.492Z,17.39
2023-05-03T12:43:33.815Z,16.97
2023-05-03T12:46:34.148Z,16.97
2023-05-03T12:49:22.606Z,16.67
2023-05-03T12:54:56.622Z,17.26
2023-05-03T12:57:45.589Z,16.76
2023-05-03T13:00:35.459Z,16.24
2023-05-03T13:03:22.331Z,15.76
2023-05-03T13:06:13.586Z,16.07
2023-05-03T13:09:02.915Z,16.81
2023-05-03T13:11:52.700Z,17.16
2023-05-03T13:14:38.778Z,16.02
2023-05-03T13:17:24.099Z,17.05
2023-05-03T13:20:10.746Z,16.26
2023-05-03T13:22:55.744Z,17.01
2023-05-03T13:25:40.884Z,17.48
2023-05-03T13:28:27.066Z,17.18
2023-05-03T13:31:12.150Z,17.25
2023-05-03T13:33:57.187Z,17.54
2023-05-03T13:36:42.450Z,17.04
2023-05-03T13:39:27.262Z,16.87
2023-05-03T13:42:12.373Z,17.11
2023-05-03T13:44:57.178Z,16.87
2023-05-03T13:48:04.660Z,17.08
2023-05-03T13:50:47.152Z,17.08
2023-05-03T13:53:32.005Z,16.87
2023-05-03T13:56:17.565Z,16.95
2023-05-03T13:59:02.469Z,17.06
2023-05-03T14:01:48.028Z,17.07
2023-05-03T14:04:33.176Z,17.70
2023-05-03T14:07:18.540Z,17.20
2023-05-03T14:10:05.888Z,17.39
2023-05-03T14:12:52.195Z,17.15
2023-05-03T14:15:42.485Z,16.95
2023-05-03T14:18:27.565Z,17.50
2023-05-03T14:21:13.807Z,17.81
2023-05-03T14:23:58.578Z,16.99
2023-05-03T14:26:43.506Z,16.93
2023-05-03T14:29:28.733Z,17.57
2023-05-03T14:32:13.657Z,17.59
2023-05-03T14:34:58.937Z,17.33
2023-05-03T14:37:44.371Z,17.46
2023-05-03T14:40:29.394Z,17.67
2023-05-03T14:43:15.394Z,17.79
2023-05-03T14:46:01.279Z,17.45
2023-05-03T14:48:46.286Z,17.79
2023-05-03T14:51:31.935Z,17.98
2023-05-03T14:54:17.646Z,17.85
2023-05-03T14:57:04.356Z,17.23
2023-05-03T14:59:49.504Z,17.48
2023-05-03T15:02:34.607Z,17.40
2023-05-03T15:05:19.583Z,17.84
2023-05-03T15:08:05.408Z,17.44
2023-05-03T15:10:50.551Z,17.59
2023-05-03T15:13:35.786Z,17.95
2023-05-03T15:16:20.720Z,17.70
2023-05-03T15:19:07.133Z,17.97
2023-05-03T15:21:52.264Z,17.79
2023-05-03T15:24:37.024Z,17.92
2023-05-03T15:27:22.212Z,17.90
2023-05-03T15:30:07.827Z,17.90
2023-05-03T15:32:53.101Z,17.78
2023-05-03T15:35:41.249Z,18.05
2023-05-03T15:38:26.204Z,18.14
2023-05-03T15:41:11.382Z,18.04
2023-05-03T15:43:56.176Z,18.13
2023-05-03T15:46:42.954Z,18.13
2023-05-03T15:49:27.885Z,18.03
2023-05-03T15:52:12.602Z,17.87
2023-05-03T15:54:57.743Z,17.88
2023-05-03T15:57:43.038Z,17.78
2023-05-03T16:00:28.135Z,17.63
2023-05-03T16:03:13.027Z,17.75
2023-05-03T16:05:58.485Z,18.02
2023-05-03T16:08:43.919Z,17.99
2023-05-03T16:11:28.926Z,17.95
2023-05-03T16:14:14.131Z,17.94
2023-05-03T16:17:00.274Z,17.90
2023-05-03T16:19:45.071Z,17.94
2023-05-03T16:22:30.160Z,17.83
2023-05-03T16:25:15.327Z,17.89
2023-05-03T16:28:00.486Z,18.00
2023-05-03T16:30:45.823Z,17.99
2023-05-03T16:33:30.968Z,17.98
2023-05-03T16:36:16.017Z,17.96
2023-05-03T16:39:00.852Z,17.87
2023-05-03T16:41:45.942Z,17.80
2023-05-03T16:44:31.045Z,17.81
2023-05-03T16:47:16.111Z,17.84
2023-05-03T16:50:01.184Z,18.01
2023-05-03T16:52:46.170Z,17.83
2023-05-03T16:55:31.118Z,17.82
2023-05-03T16:58:16.225Z,17.77
2023-05-03T17:01:01.315Z,17.65
2023-05-03T17:03:46.218Z,17.62
2023-05-03T17:06:31.326Z,17.53
2023-05-03T17:09:16.874Z,17.76
2023-05-03T17:12:03.543Z,17.53
2023-05-03T17:14:48.526Z,17.56
2023-05-03T17:17:33.505Z,17.50
2023-05-03T17:20:19.148Z,17.61
2023-05-03T17:23:03.995Z,17.67
2023-05-03T17:25:48.994Z,17.64
2023-05-03T17:28:34.461Z,17.67
2023-05-03T17:31:19.367Z,17.61
2023-05-03T17:34:04.547Z,17.55
2023-05-03T17:36:49.885Z,17.61
2023-05-03T17:39:34.880Z,17.58
2023-05-03T17:42:19.690Z,17.63
2023-05-03T17:45:05.225Z,17.63
2023-05-03T17:47:50.692Z,17.52
2023-05-03T17:50:35.634Z,17.49
2023-05-03T17:53:20.660Z,17.30
2023-05-03T17:56:12.007Z,17.09
2023-05-03T17:58:56.723Z,16.98
2023-05-03T18:01:41.910Z,16.83
2023-05-03T18:04:31.193Z,16.72
2023-05-03T18:07:16.285Z,16.64
2023-05-03T18:10:01.637Z,16.35
2023-05-03T18:12:46.994Z,16.31
2023-05-03T18:15:31.820Z,16.16
2023-05-03T18:18:16.974Z,16.13
2023-05-03T18:21:04.391Z,15.86
2023-05-03T18:23:49.399Z,15.64
2023-05-03T18:26:34.623Z,15.62
2023-05-03T18:29:19.650Z,15.47
2023-05-03T18:32:05.288Z,15.35
2023-05-03T18:34:50.314Z,15.25
2023-05-03T18:37:35.503Z,15.21
2023-05-03T18:40:20.782Z,15.10
2023-05-03T18:43:05.464Z,14.95
2023-05-03T18:45:51.409Z,14.77
2023-05-03T18:48:36.723Z,14.59
2023-05-03T18:51:21.566Z,14.53
2023-05-03T18:54:06.636Z,14.42
2023-05-03T18:56:52.969Z,14.34
2023-05-03T18:59:45.592Z,14.22
2023-05-03T19:02:33.943Z,14.12
2023-05-03T19:05:19.059Z,13.96
2023-05-03T19:08:04.673Z,13.84
2023-05-03T19:10:49.970Z,13.82
2023-05-03T19:13:36.005Z,13.70
2023-05-03T19:16:21.002Z,13.65
2023-05-03T19:19:06.770Z,13.63
2023-05-03T19:21:51.756Z,13.60
2023-05-03T19:24:37.072Z,13.60
2023-05-03T19:27:21.897Z,13.56
2023-05-03T19:30:07.871Z,13.48
2023-05-03T19:32:53.108Z,13.92
2023-05-03T19:35:39.611Z,13.78
2023-05-03T19:38:24.703Z,13.82
2023-05-03T19:41:12.067Z,13.68
2023-05-03T19:43:57.010Z,13.51
2023-05-03T19:46:41.926Z,13.53
2023-05-03T19:49:26.858Z,13.37
2023-05-03T19:52:12.000Z,13.13
2023-05-03T19:54:57.598Z,13.11
2023-05-03T19:57:42.515Z,13.05
2023-05-03T20:00:27.614Z,13.01
2023-05-03T20:03:12.529Z,12.91
2023-05-03T20:05:57.692Z,12.87
2023-05-03T20:08:43.026Z,12.81
2023-05-03T20:11:28.071Z,12.73
2023-05-03T20:14:12.922Z,12.63
2023-05-03T20:16:58.095Z,12.61
2023-05-03T20:19:43.740Z,12.52
2023-05-03T20:22:28.590Z,12.47
2023-05-03T20:25:13.806Z,12.44
2023-05-03T20:27:58.993Z,12.38
2023-05-03T20:30:44.341Z,12.36
2023-05-03T20:33:28.963Z,12.30
2023-05-03T20:36:14.371Z,12.26
2023-05-03T20:38:59.353Z,12.21
2023-05-03T20:41:44.396Z,12.18
2023-05-03T20:44:29.244Z,12.13
2023-05-03T20:47:14.321Z,12.06
2023-05-03T20:49:59.375Z,12.03
2023-05-03T20:52:44.354Z,12.00
2023-05-03T20:55:29.475Z,11.92
2023-05-03T20:58:15.941Z,11.87
2023-05-03T21:01:04.130Z,11.81
2023-05-03T21:03:49.205Z,11.74
2023-05-03T21:06:35.998Z,11.68
2023-05-03T21:09:21.245Z,11.57
2023-05-03T21:12:06.379Z,11.50
2023-05-03T21:14:51.182Z,11.41
2023-05-03T21:17:36.156Z,11.34
2023-05-03T21:20:20.992Z,11.29
2023-05-03T21:23:06.178Z,11.31
2023-05-03T21:25:53.028Z,11.26
2023-05-03T21:28:39.167Z,11.20
2023-05-03T21:31:24.438Z,11.11
2023-05-03T21:34:09.115Z,11.04
2023-05-03T21:36:54.198Z,10.92
2023-05-03T21:39:39.614Z,10.90
2023-05-03T21:42:24.716Z,10.87
2023-05-03T21:45:10.819Z,10.75
2023-05-03T21:47:55.761Z,10.67
2023-05-03T21:50:40.621Z,10.67
2023-05-03T21:53:26.005Z,10.62
2023-05-03T21:56:11.280Z,10.54
2023-05-03T21:58:56.275Z,10.47
2023-05-03T22:01:41.151Z,10.44
2023-05-03T22:04:26.414Z,10.36
2023-05-03T22:07:11.232Z,10.27
2023-05-03T22:09:56.395Z,10.21
2023-05-03T22:12:41.271Z,10.24
2023-05-03T22:15:26.463Z,10.25
2023-05-03T22:18:11.397Z,10.28
2023-05-03T22:20:56.636Z,10.27
2023-05-03T22:23:41.710Z,10.12
2023-05-03T22:26:27.525Z,10.00
2023-05-03T22:29:13.338Z,9.99
2023-05-03T22:31:59.133Z,9.87
2023-05-03T22:34:44.974Z,9.75
2023-05-03T22:37:30.122Z,9.66
2023-05-03T22:40:14.917Z,9.63
2023-05-03T22:42:59.866Z,9.78
2023-05-03T22:45:44.795Z,9.83
2023-05-03T22:48:31.738Z,9.46
2023-05-03T22:51:16.781Z,9.38
2023-05-03T22:54:01.902Z,9.45
2023-05-03T22:56:47.146Z,9.45
2023-05-03T22:59:32.322Z,9.28
2023-05-03T23:02:17.621Z,9.28
2023-05-03T23:05:02.405Z,9.32
2023-05-03T23:07:47.448Z,9.24
2023-05-03T23:10:32.180Z,9.20
2023-05-03T23:13:17.457Z,9.10
2023-05-03T23:16:02.305Z,9.19
2023-05-03T23:18:47.276Z,9.30
2023-05-03T23:21:32.297Z,9.32
2023-05-03T23:24:17.898Z,9.27
2023-05-03T23:27:02.899Z,9.21
2023-05-03T23:29:48.230Z,9.10
2023-05-03T23:32:33.440Z,8.99
2023-05-03T23:35:19.579Z,8.93
2023-05-03T23:38:04.727Z,8.94
2023-05-03T23:40:49.531Z,8.85
2023-05-03T23:43:34.337Z,8.83
2023-05-03T23:46:19.733Z,8.84
2023-05-03T23:49:04.492Z,8.93
2023-05-03T23:51:49.527Z,8.87
2023-05-03T23:54:34.411Z,8.72
2023-05-03T23:57:19.954Z,8.65
